sensor_id;sensor_type;location;lat;lon;timestamp;temperature;humidity
15357;DHT22;7778;48.792;9.260;2022-12-19T00:02:27;-1.50;99.90
15357;DHT22;7778;48.792;9.260;2022-12-19T00:05:13;-1.50;99.90
15357;DHT22;7778;48.792;9.260;2022-12-19T00:07:59;-1.50;99.90
15357;DHT22;7778;48.792;9.260;2022-12-19T00:10:54;-1.50;99.90
15357;DHT22;7778;48.792;9.260;2022-12-19T00:13:40;-1.30;99.90
15357;DHT22;7778;48.792;9.260;2022-12-19T00:16:28;-1.20;99.90
15357;DHT22;7778;48.792;9.260;2022-12-19T00:19:15;-1.20;99.90
15357;DHT22;7778;48.792;9.260;2022-12-19T00:22:01;-1.30;99.90
15357;DHT22;7778;48.792;9.260;2022-12-19T00:24:47;-1.50;99.90
15357;DHT22;7778;48.792;9.260;2022-12-19T00:27:33;-1.70;99.90
15357;DHT22;7778;48.792;9.260;2022-12-19T00:30:19;-1.80;99.90
15357;DHT22;7778;48.792;9.260;2022-12-19T00:33:05;-1.70;99.90
15357;DHT22;7778;48.792;9.260;2022-12-19T00:35:57;-1.50;99.90
15357;DHT22;7778;48.792;9.260;2022-12-19T00:38:43;-1.30;99.90
15357;DHT22;7778;48.792;9.260;2022-12-19T00:41:30;-1.40;99.90
15357;DHT22;7778;48.792;9.260;2022-12-19T00:44:17;-1.50;99.90
15357;DHT22;7778;48.792;9.260;2022-12-19T00:47:02;-1.50;99.90
15357;DHT22;7778;48.792;9.260;2022-12-19T00:49:51;-1.30;99.90
15357;DHT22;7778;48.792;9.260;2022-12-19T00:52:38;-1.30;99.90
15357;DHT22;7778;48.792;9.260;2022-12-19T00:55:24;-1.30;99.90
15357;DHT22;7778;48.792;9.260;2022-12-19T00:58:10;-1.10;99.90
15357;DHT22;7778;48.792;9.260;2022-12-19T01:00:55;-1.10;99.90
15357;DHT22;7778;48.792;9.260;2022-12-19T01:03:42;-1.00;99.90
15357;DHT22;7778;48.792;9.260;2022-12-19T01:06:28;-1.00;99.90
15357;DHT22;7778;48.792;9.260;2022-12-19T01:09:15;-1.00;99.90
15357;DHT22;7778;48.792;9.260;2022-12-19T01:12:01;-1.00;99.90
15357;DHT22;7778;48.792;9.260;2022-12-19T01:15:06;-0.90;99.90
15357;DHT22;7778;48.792;9.260;2022-12-19T01:17:52;-0.90;99.90
15357;DHT22;7778;48.792;9.260;2022-12-19T01:20:39;-0.80;99.90
15357;DHT22;7778;48.792;9.260;2022-12-19T01:23:25;-0.70;99.90
15357;DHT22;7778;48.792;9.260;2022-12-19T01:26:13;-0.70;99.90
15357;DHT22;7778;48.792;9.260;2022-12-19T01:28:59;-0.60;99.90
15357;DHT22;7778;48.792;9.260;2022-12-19T01:31:44;-0.70;99.90
15357;DHT22;7778;48.792;9.260;2022-12-19T01:34:30;-0.60;99.90
15357;DHT22;7778;48.792;9.260;2022-12-19T01:37:16;-0.60;99.90
15357;DHT22;7778;48.792;9.260;2022-12-19T01:40:02;-0.60;99.90
15357;DHT22;7778;48.792;9.260;2022-12-19T01:42:49;-0.60;99.90
15357;DHT22;7778;48.792;9.260;2022-12-19T01:45:35;-0.60;99.90
15357;DHT22;7778;48.792;9.260;2022-12-19T01:48:26;-0.60;99.90
15357;DHT22;7778;48.792;9.260;2022-12-19T01:51:18;-0.60;99.90
15357;DHT22;7778;48.792;9.260;2022-12-19T01:54:06;-0.50;99.90
15357;DHT22;7778;48.792;9.260;2022-12-19T01:56:56;-0.40;99.90
15357;DHT22;7778;48.792;9.260;2022-12-19T01:59:46;-0.40;99.90
15357;DHT22;7778;48.792;9.260;2022-12-19T02:02:36;-0.30;99.90
15357;DHT22;7778;48.792;9.260;2022-12-19T02:05:24;-0.30;99.90
15357;DHT22;7778;48.792;9.260;2022-12-19T02:08:10;-0.40;99.90
15357;DHT22;7778;48.792;9.260;2022-12-19T02:10:55;-0.30;99.90
15357;DHT22;7778;48.792;9.260;2022-12-19T02:13:41;-0.20;99.90
15357;DHT22;7778;48.792;9.260;2022-12-19T02:16:37;-0.10;99.90
15357;DHT22;7778;48.792;9.260;2022-12-19T02:19:58;-0.30;99.90
15357;DHT22;7778;48.792;9.260;2022-12-19T02:23:25;-0.30;99.90
15357;DHT22;7778;48.792;9.260;2022-12-19T02:26:34;-0.30;99.90
15357;DHT22;7778;48.792;9.260;2022-12-19T02:29:46;-0.50;99.90
15357;DHT22;7778;48.792;9.260;2022-12-19T02:32:52;-0.50;99.90
15357;DHT22;7778;48.792;9.260;2022-12-19T02:35:44;-0.60;99.90
15357;DHT22;7778;48.792;9.260;2022-12-19T02:38:38;-0.60;99.90
15357;DHT22;7778;48.792;9.260;2022-12-19T02:41:28;-0.60;99.90
15357;DHT22;7778;48.792;9.260;2022-12-19T02:44:30;-0.70;99.90
15357;DHT22;7778;48.792;9.260;2022-12-19T02:47:18;-0.60;99.90
15357;DHT22;7778;48.792;9.260;2022-12-19T02:50:07;-0.50;99.90
15357;DHT22;7778;48.792;9.260;2022-12-19T02:52:53;-0.50;99.90
15357;DHT22;7778;48.792;9.260;2022-12-19T02:55:47;-0.50;99.90
15357;DHT22;7778;48.792;9.260;2022-12-19T02:58:47;-0.40;99.90
15357;DHT22;7778;48.792;9.260;2022-12-19T03:01:41;-0.40;99.90
15357;DHT22;7778;48.792;9.260;2022-12-19T03:04:38;-0.40;99.90
15357;DHT22;7778;48.792;9.260;2022-12-19T03:07:34;-0.40;99.90
15357;DHT22;7778;48.792;9.260;2022-12-19T03:10:29;-0.30;99.90
15357;DHT22;7778;48.792;9.260;2022-12-19T03:13:18;-0.30;99.90
15357;DHT22;7778;48.792;9.260;2022-12-19T03:16:09;-0.40;99.90
15357;DHT22;7778;48.792;9.260;2022-12-19T03:18:55;-0.30;99.90
15357;DHT22;7778;48.792;9.260;2022-12-19T03:21:43;-0.10;99.90
15357;DHT22;7778;48.792;9.260;2022-12-19T03:24:34;-0.10;99.90
15357;DHT22;7778;48.792;9.260;2022-12-19T03:27:26;-0.10;99.90
15357;DHT22;7778;48.792;9.260;2022-12-19T03:30:13;-0.10;99.90
15357;DHT22;7778;48.792;9.260;2022-12-19T03:32:59;-0.10;99.90
15357;DHT22;7778;48.792;9.260;2022-12-19T03:35:46;-0.20;99.90
15357;DHT22;7778;48.792;9.260;2022-12-19T03:38:34;-0.10;99.90
15357;DHT22;7778;48.792;9.260;2022-12-19T03:41:24;-0.10;99.90
15357;DHT22;7778;48.792;9.260;2022-12-19T03:44:25;-0.20;99.90
15357;DHT22;7778;48.792;9.260;2022-12-19T03:47:17;-0.10;99.90
15357;DHT22;7778;48.792;9.260;2022-12-19T03:50:06;-0.30;99.90
15357;DHT22;7778;48.792;9.260;2022-12-19T03:52:59;-0.30;99.90
15357;DHT22;7778;48.792;9.260;2022-12-19T03:55:52;-0.30;99.90
15357;DHT22;7778;48.792;9.260;2022-12-19T03:58:45;-0.30;99.90
15357;DHT22;7778;48.792;9.260;2022-12-19T04:01:34;-0.20;99.90
15357;DHT22;7778;48.792;9.260;2022-12-19T04:04:21;-0.20;99.90
15357;DHT22;7778;48.792;9.260;2022-12-19T04:07:08;-0.20;99.90
15357;DHT22;7778;48.792;9.260;2022-12-19T04:09:55;-0.20;99.90
15357;DHT22;7778;48.792;9.260;2022-12-19T04:12:46;-0.10;99.90
15357;DHT22;7778;48.792;9.260;2022-12-19T04:15:43;-0.10;99.90
15357;DHT22;7778;48.792;9.260;2022-12-19T04:18:34;-0.10;99.90
15357;DHT22;7778;48.792;9.260;2022-12-19T04:21:24;0.00;99.90
15357;DHT22;7778;48.792;9.260;2022-12-19T04:24:17;0.00;99.90
15357;DHT22;7778;48.792;9.260;2022-12-19T04:27:07;0.10;99.90
15357;DHT22;7778;48.792;9.260;2022-12-19T04:29:55;0.10;99.90
15357;DHT22;7778;48.792;9.260;2022-12-19T04:32:47;0.10;99.90
15357;DHT22;7778;48.792;9.260;2022-12-19T04:35:33;0.00;99.90
15357;DHT22;7778;48.792;9.260;2022-12-19T04:38:19;0.10;99.90
15357;DHT22;7778;48.792;9.260;2022-12-19T04:41:05;0.10;99.90
15357;DHT22;7778;48.792;9.260;2022-12-19T04:43:50;0.20;99.90
15357;DHT22;7778;48.792;9.260;2022-12-19T04:46:36;0.30;99.90
15357;DHT22;7778;48.792;9.260;2022-12-19T04:49:22;0.40;99.90
15357;DHT22;7778;48.792;9.260;2022-12-19T04:52:08;0.50;99.90
15357;DHT22;7778;48.792;9.260;2022-12-19T04:54:54;0.50;99.90
15357;DHT22;7778;48.792;9.260;2022-12-19T04:57:39;0.50;99.90
15357;DHT22;7778;48.792;9.260;2022-12-19T05:00:24;0.50;99.90
15357;DHT22;7778;48.792;9.260;2022-12-19T05:03:10;0.50;99.90
15357;DHT22;7778;48.792;9.260;2022-12-19T05:06:04;0.60;99.90
15357;DHT22;7778;48.792;9.260;2022-12-19T05:08:51;0.60;99.90
15357;DHT22;7778;48.792;9.260;2022-12-19T05:11:37;0.70;99.90
15357;DHT22;7778;48.792;9.260;2022-12-19T05:14:23;1.00;99.90
15357;DHT22;7778;48.792;9.260;2022-12-19T05:17:08;1.00;99.90
15357;DHT22;7778;48.792;9.260;2022-12-19T05:19:53;1.10;99.90
15357;DHT22;7778;48.792;9.260;2022-12-19T05:22:40;1.20;99.90
15357;DHT22;7778;48.792;9.260;2022-12-19T05:25:26;1.20;99.90
15357;DHT22;7778;48.792;9.260;2022-12-19T05:28:12;1.30;99.90
15357;DHT22;7778;48.792;9.260;2022-12-19T05:31:02;1.30;99.90
15357;DHT22;7778;48.792;9.260;2022-12-19T05:33:49;1.30;99.90
15357;DHT22;7778;48.792;9.260;2022-12-19T05:36:34;1.30;99.90
15357;DHT22;7778;48.792;9.260;2022-12-19T05:39:21;1.30;99.90
15357;DHT22;7778;48.792;9.260;2022-12-19T05:42:07;1.20;99.90
15357;DHT22;7778;48.792;9.260;2022-12-19T05:44:53;1.20;99.90
15357;DHT22;7778;48.792;9.260;2022-12-19T05:47:38;1.20;99.90
15357;DHT22;7778;48.792;9.260;2022-12-19T05:50:24;1.20;99.90
15357;DHT22;7778;48.792;9.260;2022-12-19T05:53:10;1.30;99.90
15357;DHT22;7778;48.792;9.260;2022-12-19T05:56:03;1.10;99.90
15357;DHT22;7778;48.792;9.260;2022-12-19T05:58:50;1.10;99.90
15357;DHT22;7778;48.792;9.260;2022-12-19T06:01:35;1.10;99.90
15357;DHT22;7778;48.792;9.260;2022-12-19T06:04:21;1.10;99.90
15357;DHT22;7778;48.792;9.260;2022-12-19T06:07:06;1.10;99.90
15357;DHT22;7778;48.792;9.260;2022-12-19T06:09:52;1.10;99.90
15357;DHT22;7778;48.792;9.260;2022-12-19T06:12:38;1.10;99.90
15357;DHT22;7778;48.792;9.260;2022-12-19T06:15:24;1.10;99.90
15357;DHT22;7778;48.792;9.260;2022-12-19T06:18:09;1.20;99.90
15357;DHT22;7778;48.792;9.260;2022-12-19T06:20:56;1.20;99.90
15357;DHT22;7778;48.792;9.260;2022-12-19T06:23:43;1.20;99.90
15357;DHT22;7778;48.792;9.260;2022-12-19T06:26:29;1.10;99.90
15357;DHT22;7778;48.792;9.260;2022-12-19T06:29:16;1.10;99.90
15357;DHT22;7778;48.792;9.260;2022-12-19T06:32:02;1.20;99.90
15357;DHT22;7778;48.792;9.260;2022-12-19T06:34:47;1.10;99.90
15357;DHT22;7778;48.792;9.260;2022-12-19T06:37:33;1.10;99.90
15357;DHT22;7778;48.792;9.260;2022-12-19T06:40:18;1.00;99.90
15357;DHT22;7778;48.792;9.260;2022-12-19T06:43:18;1.00;99.90
15357;DHT22;7778;48.792;9.260;2022-12-19T06:46:05;1.00;99.90
15357;DHT22;7778;48.792;9.260;2022-12-19T06:48:51;0.90;99.90
15357;DHT22;7778;48.792;9.260;2022-12-19T06:51:37;1.00;99.90
15357;DHT22;7778;48.792;9.260;2022-12-19T06:54:23;1.00;99.90
15357;DHT22;7778;48.792;9.260;2022-12-19T06:57:08;1.00;99.90
15357;DHT22;7778;48.792;9.260;2022-12-19T06:59:54;1.10;99.90
15357;DHT22;7778;48.792;9.260;2022-12-19T07:02:43;1.20;99.90
15357;DHT22;7778;48.792;9.260;2022-12-19T07:05:30;1.40;99.90
15357;DHT22;7778;48.792;9.260;2022-12-19T07:08:15;1.20;99.90
15357;DHT22;7778;48.792;9.260;2022-12-19T07:11:01;1.10;99.90
15357;DHT22;7778;48.792;9.260;2022-12-19T07:13:47;1.10;99.90
15357;DHT22;7778;48.792;9.260;2022-12-19T07:16:32;1.10;99.90
15357;DHT22;7778;48.792;9.260;2022-12-19T07:19:20;1.10;99.90
15357;DHT22;7778;48.792;9.260;2022-12-19T07:22:06;1.20;99.90
15357;DHT22;7778;48.792;9.260;2022-12-19T07:24:54;1.30;99.90
15357;DHT22;7778;48.792;9.260;2022-12-19T07:27:39;1.30;99.90
15357;DHT22;7778;48.792;9.260;2022-12-19T07:30:28;1.30;99.90
15357;DHT22;7778;48.792;9.260;2022-12-19T07:33:13;1.40;99.90
15357;DHT22;7778;48.792;9.260;2022-12-19T07:36:00;1.40;99.90
15357;DHT22;7778;48.792;9.260;2022-12-19T07:38:46;1.60;99.90
15357;DHT22;7778;48.792;9.260;2022-12-19T07:41:31;1.70;99.90
15357;DHT22;7778;48.792;9.260;2022-12-19T07:44:20;1.70;99.90
15357;DHT22;7778;48.792;9.260;2022-12-19T07:47:05;1.80;99.90
15357;DHT22;7778;48.792;9.260;2022-12-19T07:49:54;1.80;99.90
15357;DHT22;7778;48.792;9.260;2022-12-19T07:52:43;1.90;99.90
15357;DHT22;7778;48.792;9.260;2022-12-19T07:55:29;1.90;99.90
15357;DHT22;7778;48.792;9.260;2022-12-19T07:58:15;2.00;99.90
15357;DHT22;7778;48.792;9.260;2022-12-19T08:01:00;2.00;99.90
15357;DHT22;7778;48.792;9.260;2022-12-19T08:03:46;2.10;99.90
15357;DHT22;7778;48.792;9.260;2022-12-19T08:06:32;2.10;99.90
15357;DHT22;7778;48.792;9.260;2022-12-19T08:09:19;2.10;99.90
15357;DHT22;7778;48.792;9.260;2022-12-19T08:12:05;2.10;99.90
15357;DHT22;7778;48.792;9.260;2022-12-19T08:14:50;2.30;99.90
15357;DHT22;7778;48.792;9.260;2022-12-19T08:17:36;2.40;99.90
15357;DHT22;7778;48.792;9.260;2022-12-19T08:20:22;2.60;99.90
15357;DHT22;7778;48.792;9.260;2022-12-19T08:23:08;2.60;99.90
15357;DHT22;7778;48.792;9.260;2022-12-19T08:26:02;2.70;99.90
15357;DHT22;7778;48.792;9.260;2022-12-19T08:28:50;2.70;99.90
15357;DHT22;7778;48.792;9.260;2022-12-19T08:31:36;2.70;99.90
15357;DHT22;7778;48.792;9.260;2022-12-19T08:34:21;2.80;99.90
15357;DHT22;7778;48.792;9.260;2022-12-19T08:37:07;2.90;99.90
15357;DHT22;7778;48.792;9.260;2022-12-19T08:39:54;2.90;99.90
15357;DHT22;7778;48.792;9.260;2022-12-19T08:42:41;3.00;99.90
15357;DHT22;7778;48.792;9.260;2022-12-19T08:45:26;3.00;99.90
15357;DHT22;7778;48.792;9.260;2022-12-19T08:48:12;3.00;99.90
15357;DHT22;7778;48.792;9.260;2022-12-19T08:50:59;3.00;99.90
15357;DHT22;7778;48.792;9.260;2022-12-19T08:53:46;3.10;99.90
15357;DHT22;7778;48.792;9.260;2022-12-19T08:56:32;3.20;99.90
15357;DHT22;7778;48.792;9.260;2022-12-19T08:59:20;3.30;99.90
15357;DHT22;7778;48.792;9.260;2022-12-19T09:02:05;3.40;99.90
15357;DHT22;7778;48.792;9.260;2022-12-19T09:04:51;3.50;99.90
15357;DHT22;7778;48.792;9.260;2022-12-19T09:07:37;3.50;99.90
15357;DHT22;7778;48.792;9.260;2022-12-19T09:10:24;3.60;99.90
15357;DHT22;7778;48.792;9.260;2022-12-19T09:13:09;3.60;99.90
15357;DHT22;7778;48.792;9.260;2022-12-19T09:16:00;3.60;99.90
15357;DHT22;7778;48.792;9.260;2022-12-19T09:18:49;3.90;99.90
15357;DHT22;7778;48.792;9.260;2022-12-19T09:21:35;3.80;99.90
15357;DHT22;7778;48.792;9.260;2022-12-19T09:24:21;4.00;99.90
15357;DHT22;7778;48.792;9.260;2022-12-19T09:27:06;3.90;99.90
15357;DHT22;7778;48.792;9.260;2022-12-19T09:29:52;3.80;99.90
15357;DHT22;7778;48.792;9.260;2022-12-19T09:32:39;3.80;99.90
15357;DHT22;7778;48.792;9.260;2022-12-19T09:35:24;3.80;99.90
15357;DHT22;7778;48.792;9.260;2022-12-19T09:38:10;3.80;99.90
15357;DHT22;7778;48.792;9.260;2022-12-19T09:41:05;3.80;99.90
15357;DHT22;7778;48.792;9.260;2022-12-19T09:44:09;3.90;99.90
15357;DHT22;7778;48.792;9.260;2022-12-19T09:47:00;4.10;99.90
15357;DHT22;7778;48.792;9.260;2022-12-19T09:49:51;4.20;99.90
15357;DHT22;7778;48.792;9.260;2022-12-19T09:52:39;4.30;99.90
15357;DHT22;7778;48.792;9.260;2022-12-19T09:55:30;4.40;99.90
15357;DHT22;7778;48.792;9.260;2022-12-19T09:58:27;4.50;99.90
15357;DHT22;7778;48.792;9.260;2022-12-19T10:01:19;4.40;99.90
15357;DHT22;7778;48.792;9.260;2022-12-19T10:04:10;4.30;99.90
15357;DHT22;7778;48.792;9.260;2022-12-19T10:07:00;4.30;99.90
15357;DHT22;7778;48.792;9.260;2022-12-19T10:09:46;4.50;99.90
15357;DHT22;7778;48.792;9.260;2022-12-19T10:12:52;4.70;99.90
15357;DHT22;7778;48.792;9.260;2022-12-19T10:15:52;4.70;99.90
15357;DHT22;7778;48.792;9.260;2022-12-19T10:18:50;4.70;99.90
15357;DHT22;7778;48.792;9.260;2022-12-19T10:21:40;4.80;99.90
15357;DHT22;7778;48.792;9.260;2022-12-19T10:24:53;5.40;99.90
15357;DHT22;7778;48.792;9.260;2022-12-19T10:27:50;5.90;99.90
15357;DHT22;7778;48.792;9.260;2022-12-19T10:30:43;6.00;99.90
15357;DHT22;7778;48.792;9.260;2022-12-19T10:33:39;6.00;99.90
15357;DHT22;7778;48.792;9.260;2022-12-19T10:36:29;5.90;99.90
15357;DHT22;7778;48.792;9.260;2022-12-19T10:39:24;5.70;99.90
15357;DHT22;7778;48.792;9.260;2022-12-19T10:42:17;5.50;99.90
15357;DHT22;7778;48.792;9.260;2022-12-19T10:45:13;5.50;99.90
15357;DHT22;7778;48.792;9.260;2022-12-19T10:47:59;5.40;99.90
15357;DHT22;7778;48.792;9.260;2022-12-19T10:50:45;5.70;99.90
15357;DHT22;7778;48.792;9.260;2022-12-19T10:53:31;6.00;99.90
15357;DHT22;7778;48.792;9.260;2022-12-19T10:56:22;6.40;99.90
15357;DHT22;7778;48.792;9.260;2022-12-19T10:59:17;6.60;99.90
15357;DHT22;7778;48.792;9.260;2022-12-19T11:02:15;6.60;99.90
15357;DHT22;7778;48.792;9.260;2022-12-19T11:05:26;6.40;99.90
15357;DHT22;7778;48.792;9.260;2022-12-19T11:08:16;6.50;99.90
15357;DHT22;7778;48.792;9.260;2022-12-19T11:11:12;6.30;99.90
15357;DHT22;7778;48.792;9.260;2022-12-19T11:13:58;6.10;99.90
15357;DHT22;7778;48.792;9.260;2022-12-19T11:16:45;6.10;99.90
15357;DHT22;7778;48.792;9.260;2022-12-19T11:19:33;5.90;99.90
15357;DHT22;7778;48.792;9.260;2022-12-19T11:22:21;5.60;99.90
15357;DHT22;7778;48.792;9.260;2022-12-19T11:25:15;5.90;99.90
15357;DHT22;7778;48.792;9.260;2022-12-19T11:28:08;6.00;99.90
15357;DHT22;7778;48.792;9.260;2022-12-19T11:31:03;6.10;99.90
15357;DHT22;7778;48.792;9.260;2022-12-19T11:33:55;6.00;99.90
15357;DHT22;7778;48.792;9.260;2022-12-19T11:36:51;6.10;99.90
15357;DHT22;7778;48.792;9.260;2022-12-19T11:39:44;6.50;99.90
15357;DHT22;7778;48.792;9.260;2022-12-19T11:42:38;6.40;99.90
15357;DHT22;7778;48.792;9.260;2022-12-19T11:45:39;6.20;99.90
15357;DHT22;7778;48.792;9.260;2022-12-19T11:48:35;5.90;99.90
15357;DHT22;7778;48.792;9.260;2022-12-19T11:51:29;6.10;99.90
15357;DHT22;7778;48.792;9.260;2022-12-19T11:54:21;6.40;99.90
15357;DHT22;7778;48.792;9.260;2022-12-19T11:57:10;6.40;99.90
15357;DHT22;7778;48.792;9.260;2022-12-19T11:59:56;6.20;99.90
15357;DHT22;7778;48.792;9.260;2022-12-19T12:03:05;6.20;99.90
15357;DHT22;7778;48.792;9.260;2022-12-19T12:06:12;6.10;99.90
15357;DHT22;7778;48.792;9.260;2022-12-19T12:09:10;6.50;99.90
15357;DHT22;7778;48.792;9.260;2022-12-19T12:12:05;6.50;99.90
15357;DHT22;7778;48.792;9.260;2022-12-19T12:15:15;6.60;99.90
15357;DHT22;7778;48.792;9.260;2022-12-19T12:18:21;6.70;99.90
15357;DHT22;7778;48.792;9.260;2022-12-19T12:21:21;6.30;99.90
15357;DHT22;7778;48.792;9.260;2022-12-19T12:24:16;6.10;99.90
15357;DHT22;7778;48.792;9.260;2022-12-19T12:27:22;6.10;99.90
15357;DHT22;7778;48.792;9.260;2022-12-19T12:30:17;6.20;99.90
15357;DHT22;7778;48.792;9.260;2022-12-19T12:33:21;6.30;99.90
15357;DHT22;7778;48.792;9.260;2022-12-19T12:36:14;6.40;99.90
15357;DHT22;7778;48.792;9.260;2022-12-19T12:39:16;6.00;99.90
15357;DHT22;7778;48.792;9.260;2022-12-19T12:42:13;6.00;99.90
15357;DHT22;7778;48.792;9.260;2022-12-19T12:45:16;6.00;99.90
15357;DHT22;7778;48.792;9.260;2022-12-19T12:48:09;6.10;99.90
15357;DHT22;7778;48.792;9.260;2022-12-19T12:51:02;6.00;99.90
15357;DHT22;7778;48.792;9.260;2022-12-19T12:53:48;5.80;99.90
15357;DHT22;7778;48.792;9.260;2022-12-19T12:56:41;5.70;99.90
15357;DHT22;7778;48.792;9.260;2022-12-19T12:59:28;5.70;99.90
15357;DHT22;7778;48.792;9.260;2022-12-19T13:02:17;5.60;99.90
15357;DHT22;7778;48.792;9.260;2022-12-19T13:08:46;5.50;99.90
15357;DHT22;7778;48.792;9.260;2022-12-19T13:11:38;5.50;99.90
15357;DHT22;7778;48.792;9.260;2022-12-19T13:14:48;5.40;99.90
15357;DHT22;7778;48.792;9.260;2022-12-19T13:17:59;5.30;99.90
15357;DHT22;7778;48.792;9.260;2022-12-19T13:20:47;5.20;99.90
15357;DHT22;7778;48.792;9.260;2022-12-19T13:23:48;5.30;99.90
15357;DHT22;7778;48.792;9.260;2022-12-19T13:26:47;5.20;99.90
15357;DHT22;7778;48.792;9.260;2022-12-19T13:30:02;5.20;99.90
15357;DHT22;7778;48.792;9.260;2022-12-19T13:33:07;5.40;99.90
15357;DHT22;7778;48.792;9.260;2022-12-19T13:35:54;5.50;99.90
15357;DHT22;7778;48.792;9.260;2022-12-19T13:38:47;5.50;99.90
15357;DHT22;7778;48.792;9.260;2022-12-19T13:41:40;5.50;99.90
15357;DHT22;7778;48.792;9.260;2022-12-19T13:44:44;5.50;99.90
15357;DHT22;7778;48.792;9.260;2022-12-19T13:47:37;5.50;99.90
15357;DHT22;7778;48.792;9.260;2022-12-19T13:50:29;5.40;99.90
15357;DHT22;7778;48.792;9.260;2022-12-19T13:53:17;5.30;99.90
15357;DHT22;7778;48.792;9.260;2022-12-19T13:56:08;5.40;99.90
15357;DHT22;7778;48.792;9.260;2022-12-19T13:58:58;5.40;99.90
15357;DHT22;7778;48.792;9.260;2022-12-19T14:01:47;5.50;99.90
15357;DHT22;7778;48.792;9.260;2022-12-19T14:04:34;5.40;99.90
15357;DHT22;7778;48.792;9.260;2022-12-19T14:07:31;5.50;99.90
15357;DHT22;7778;48.792;9.260;2022-12-19T14:10:23;5.60;99.90
15357;DHT22;7778;48.792;9.260;2022-12-19T14:13:15;5.70;99.90
15357;DHT22;7778;48.792;9.260;2022-12-19T14:16:22;5.80;99.90
15357;DHT22;7778;48.792;9.260;2022-12-19T14:19:18;5.80;99.90
15357;DHT22;7778;48.792;9.260;2022-12-19T14:22:09;5.80;99.90
15357;DHT22;7778;48.792;9.260;2022-12-19T14:24:56;5.90;99.90
15357;DHT22;7778;48.792;9.260;2022-12-19T14:27:46;5.70;99.90
15357;DHT22;7778;48.792;9.260;2022-12-19T14:30:36;5.70;99.90
15357;DHT22;7778;48.792;9.260;2022-12-19T14:33:31;5.70;99.90
15357;DHT22;7778;48.792;9.260;2022-12-19T14:36:26;5.80;99.90
15357;DHT22;7778;48.792;9.260;2022-12-19T14:39:15;5.90;99.90
15357;DHT22;7778;48.792;9.260;2022-12-19T14:42:02;5.90;99.90
15357;DHT22;7778;48.792;9.260;2022-12-19T14:45:32;5.90;99.90
15357;DHT22;7778;48.792;9.260;2022-12-19T14:48:27;6.00;99.90
15357;DHT22;7778;48.792;9.260;2022-12-19T14:51:24;6.00;99.90
15357;DHT22;7778;48.792;9.260;2022-12-19T14:54:17;6.00;99.90
15357;DHT22;7778;48.792;9.260;2022-12-19T14:57:03;6.00;99.90
15357;DHT22;7778;48.792;9.260;2022-12-19T14:59:49;5.90;99.90
15357;DHT22;7778;48.792;9.260;2022-12-19T15:02:35;5.80;99.90
15357;DHT22;7778;48.792;9.260;2022-12-19T15:05:22;5.80;99.90
15357;DHT22;7778;48.792;9.260;2022-12-19T15:08:10;5.70;99.90
15357;DHT22;7778;48.792;9.260;2022-12-19T15:10:59;5.80;99.90
15357;DHT22;7778;48.792;9.260;2022-12-19T15:14:06;6.00;99.90
15357;DHT22;7778;48.792;9.260;2022-12-19T15:17:00;5.70;99.90
15357;DHT22;7778;48.792;9.260;2022-12-19T15:19:47;5.60;99.90
15357;DHT22;7778;48.792;9.260;2022-12-19T15:22:33;5.60;99.90
15357;DHT22;7778;48.792;9.260;2022-12-19T15:25:20;5.70;99.90
15357;DHT22;7778;48.792;9.260;2022-12-19T15:28:12;5.60;99.90
15357;DHT22;7778;48.792;9.260;2022-12-19T15:31:03;5.70;99.90
15357;DHT22;7778;48.792;9.260;2022-12-19T15:33:51;5.80;99.90
15357;DHT22;7778;48.792;9.260;2022-12-19T15:36:36;5.90;99.90
15357;DHT22;7778;48.792;9.260;2022-12-19T15:39:23;5.60;99.90
15357;DHT22;7778;48.792;9.260;2022-12-19T15:42:19;5.60;99.90
15357;DHT22;7778;48.792;9.260;2022-12-19T15:45:10;5.50;99.90
15357;DHT22;7778;48.792;9.260;2022-12-19T15:47:57;5.50;99.90
15357;DHT22;7778;48.792;9.260;2022-12-19T15:50:43;5.50;99.90
15357;DHT22;7778;48.792;9.260;2022-12-19T15:53:30;5.40;99.90
15357;DHT22;7778;48.792;9.260;2022-12-19T15:56:24;5.40;99.90
15357;DHT22;7778;48.792;9.260;2022-12-19T15:59:21;5.30;99.90
15357;DHT22;7778;48.792;9.260;2022-12-19T16:02:15;5.20;99.90
15357;DHT22;7778;48.792;9.260;2022-12-19T16:05:02;5.20;99.90
15357;DHT22;7778;48.792;9.260;2022-12-19T16:07:49;5.20;99.90
15357;DHT22;7778;48.792;9.260;2022-12-19T16:10:34;5.10;99.90
15357;DHT22;7778;48.792;9.260;2022-12-19T16:13:22;5.00;99.90
15357;DHT22;7778;48.792;9.260;2022-12-19T16:16:11;5.10;99.90
15357;DHT22;7778;48.792;9.260;2022-12-19T16:18:56;5.00;99.90
15357;DHT22;7778;48.792;9.260;2022-12-19T16:21:42;4.90;99.90
15357;DHT22;7778;48.792;9.260;2022-12-19T16:24:27;5.10;99.90
15357;DHT22;7778;48.792;9.260;2022-12-19T16:27:20;4.90;99.90
15357;DHT22;7778;48.792;9.260;2022-12-19T16:30:17;5.10;99.90
15357;DHT22;7778;48.792;9.260;2022-12-19T16:33:16;4.90;99.90
15357;DHT22;7778;48.792;9.260;2022-12-19T16:36:04;4.90;99.90
15357;DHT22;7778;48.792;9.260;2022-12-19T16:38:50;4.90;99.90
15357;DHT22;7778;48.792;9.260;2022-12-19T16:41:36;4.80;99.90
15357;DHT22;7778;48.792;9.260;2022-12-19T16:44:23;4.80;99.90
15357;DHT22;7778;48.792;9.260;2022-12-19T16:47:11;4.80;99.90
15357;DHT22;7778;48.792;9.260;2022-12-19T16:50:01;4.90;99.90
15357;DHT22;7778;48.792;9.260;2022-12-19T16:52:47;4.90;99.90
15357;DHT22;7778;48.792;9.260;2022-12-19T16:55:32;4.90;99.90
15357;DHT22;7778;48.792;9.260;2022-12-19T16:58:20;4.80;99.90
15357;DHT22;7778;48.792;9.260;2022-12-19T17:01:09;4.90;99.90
15357;DHT22;7778;48.792;9.260;2022-12-19T17:03:54;4.90;99.90
15357;DHT22;7778;48.792;9.260;2022-12-19T17:06:42;5.00;99.90
15357;DHT22;7778;48.792;9.260;2022-12-19T17:09:27;5.10;99.90
15357;DHT22;7778;48.792;9.260;2022-12-19T17:12:16;5.10;99.90
15357;DHT22;7778;48.792;9.260;2022-12-19T17:15:03;5.00;99.90
15357;DHT22;7778;48.792;9.260;2022-12-19T17:17:52;4.90;99.90
15357;DHT22;7778;48.792;9.260;2022-12-19T17:20:42;4.90;99.90
15357;DHT22;7778;48.792;9.260;2022-12-19T17:23:30;4.90;99.90
15357;DHT22;7778;48.792;9.260;2022-12-19T17:26:16;4.90;99.90
15357;DHT22;7778;48.792;9.260;2022-12-19T17:29:02;4.90;99.90
15357;DHT22;7778;48.792;9.260;2022-12-19T17:31:48;4.90;99.90
15357;DHT22;7778;48.792;9.260;2022-12-19T17:34:34;4.90;99.90
15357;DHT22;7778;48.792;9.260;2022-12-19T17:37:20;4.80;99.90
15357;DHT22;7778;48.792;9.260;2022-12-19T17:40:14;4.80;99.90
15357;DHT22;7778;48.792;9.260;2022-12-19T17:43:01;4.80;99.90
15357;DHT22;7778;48.792;9.260;2022-12-19T17:45:47;4.70;99.90
15357;DHT22;7778;48.792;9.260;2022-12-19T17:48:35;4.60;99.90
15357;DHT22;7778;48.792;9.260;2022-12-19T17:51:21;4.60;99.90
15357;DHT22;7778;48.792;9.260;2022-12-19T17:54:10;4.70;99.90
15357;DHT22;7778;48.792;9.260;2022-12-19T17:56:57;4.80;99.90
15357;DHT22;7778;48.792;9.260;2022-12-19T17:59:43;4.80;99.90
15357;DHT22;7778;48.792;9.260;2022-12-19T18:02:29;4.80;99.90
15357;DHT22;7778;48.792;9.260;2022-12-19T18:05:17;4.90;99.90
15357;DHT22;7778;48.792;9.260;2022-12-19T18:08:24;5.00;99.90
15357;DHT22;7778;48.792;9.260;2022-12-19T18:11:16;5.10;99.90
15357;DHT22;7778;48.792;9.260;2022-12-19T18:14:05;5.10;99.90
15357;DHT22;7778;48.792;9.260;2022-12-19T18:16:50;5.10;99.90
15357;DHT22;7778;48.792;9.260;2022-12-19T18:19:36;5.10;99.90
15357;DHT22;7778;48.792;9.260;2022-12-19T18:22:22;5.10;99.90
15357;DHT22;7778;48.792;9.260;2022-12-19T18:25:14;5.10;99.90
15357;DHT22;7778;48.792;9.260;2022-12-19T18:28:01;5.10;99.90
15357;DHT22;7778;48.792;9.260;2022-12-19T18:30:48;5.20;99.90